O'Brien, TX (79539)

1:53 PM CDT on September 18, 2014 (GMT -0500)
WT_Meso 3NW Knox City | Change Station
CLOSE
Current Station
Personal Weather Station
Location: Knox City, TX
Elevation: 1470 ft
Nearby Weather Stations

Elev 1470 ft 33.45 °N, 99.86 °W | Updated 28 minutes ago

Rain
Rain
70 °F
Feels Like 70 °F
N
8
Wind Variable Wind from WNW
Gusts 10.0 mph

Today
High -- | Low -- °F
--% Chance of Precip.
Yesterday
High -- | Low -- °F
Precip. -- in
7:24 AM 7:41 PM
Waning Crescent, 25% visible
Pressure 29.94 in
Visibility 10.0 miles
Clouds Few 1800 ft
Dew Point 66 °F
Humidity 90%
Rainfall -999.00 in
Snow Depth Not available.
UV 9 out of 12
Pollen 8.20 out of 12
Air Quality Not available.
Flu Activity Not available.
SPECI KDYS 181825Z AUTO 35003KT 10SM FEW018 25/21 A2994 RMK AO2 RAB1756E1817DZE1756B1817E1823 $

More Conditions Fewer Conditions

Pressure 29.94 in
Visibility 10.0 miles
Clouds Few 1800 ft
Dew Point 66 °F
Humidity 90%
Rainfall -999.00 in
Snow Depth Not available.
UV 9 out of 12
Pollen 8.20 out of 12
Air Quality Not available.
Flu Activity Not available.
SPECI KDYS 181825Z AUTO 35003KT 10SM FEW018 25/21 A2994 RMK AO2 RAB1756E1817DZE1756B1817E1823 $

More Conditions Fewer Conditions

Nowcast | as of 12:18 PM CDT on September 18, 2014

Early this afternoon...showers and thunderstorms will continue to develop and increase in coverage across the Big Country area along and north of Interstate 20. Moderate to heavy rainfall is likely where the showers and storms occur...and this could cause ponding of water on roads. Scattered showers and thunderstorms will develop farther south toward Sterling City...Robert Lee and Coleman during the afternoon. Isolated showers or thunderstorms are possible across the southern half of west central Texas.

×

10-Day Weather Forecast

Almanac

Astronomy

Sep. 18, 2014 Rise Set
Actual Time 7:24 AM CDT 7:41 PM CDT
Civil Twilight 7:00 AM CDT 8:06 PM CDT
Nautical Twilight 6:31 AM CDT 8:35 PM CDT
Astronomical Twilight 6:01 AM CDT 9:04 PM CDT
Moon 2:30 AM CDT 4:23 PM CDT
Length of Visible Light 13h 06m
Length of Day
12h 16m
Tomorrow will be 2m 2s shorter.
Waning Crescent, 25% of the Moon is Illuminated
Today
Waning Crescent
Sep 24
New
Oct 1
First Quarter
Oct 8
Full
Oct 15
Last Quarter

Today's Extremes

State Highs State Lows

Community

WunderPhotos

Upload Photos

1,754,417 photos uploaded!

Nearby

Snow Depth

Station Depth Elevation
No new snow has been reported.

Earthquake Activity

City Distance Mag. Time & Date
No recent earthquake activity has been reported nearby.
Minimum magnitude displayed is 2.5.

Coastal Water Temperatures

Place Temperature
No Stations Reporting

Nearby Weather Stations